createdAt,value
2018-07-05T00:02:19.533Z,71.80
2018-07-05T00:10:07.043Z,72.40
2018-07-05T00:12:46.489Z,72.50
2018-07-05T00:15:25.710Z,72.60
2018-07-05T00:18:05.055Z,72.60
2018-07-05T00:25:51.233Z,73.30
2018-07-05T00:31:04.503Z,73.60
2018-07-05T00:33:44.459Z,73.80
2018-07-05T00:36:24.011Z,74.00
2018-07-05T00:39:03.908Z,73.80
2018-07-05T00:41:43.411Z,74.10
2018-07-05T00:44:22.730Z,74.00
2018-07-05T00:47:02.013Z,74.30
2018-07-05T00:49:41.440Z,75.30
2018-07-05T00:52:20.953Z,74.40
2018-07-05T00:55:00.315Z,74.80
2018-07-05T01:00:12.968Z,76.00
2018-07-05T01:05:25.413Z,76.90
2018-07-05T01:10:38.998Z,77.40
2018-07-05T01:13:19.096Z,77.60
2018-07-05T01:16:02.947Z,77.90
2018-07-05T01:18:43.442Z,77.70
2018-07-05T01:24:08.753Z,77.00
2018-07-05T01:26:48.884Z,77.20
2018-07-05T01:29:28.951Z,78.10
2018-07-05T01:32:09.010Z,77.10
2018-07-05T01:34:49.077Z,76.70
2018-07-05T01:37:28.829Z,76.60
2018-07-05T01:40:09.531Z,76.30
2018-07-05T01:45:24.225Z,76.40
2018-07-05T01:48:04.765Z,76.00
2018-07-05T01:50:45.131Z,75.70
2018-07-05T01:53:26.203Z,75.40
2018-07-05T01:56:06.193Z,75.60
2018-07-05T01:58:45.812Z,75.70
2018-07-05T02:01:25.756Z,75.70
2018-07-05T02:04:05.846Z,75.60
2018-07-05T02:06:46.510Z,75.90
2018-07-05T02:09:26.568Z,76.20
2018-07-05T02:12:06.720Z,76.00
2018-07-05T02:14:48.826Z,76.20
2018-07-05T02:17:28.796Z,76.90
2018-07-05T02:20:09.050Z,77.50
2018-07-05T02:22:48.898Z,77.60
2018-07-05T02:25:29.072Z,78.10
2018-07-05T02:28:09.258Z,78.40
2018-07-05T02:33:23.643Z,79.30
2018-07-05T02:36:03.878Z,79.70
2018-07-05T02:38:46.056Z,79.60
2018-07-05T02:41:26.159Z,79.70
2018-07-05T02:46:39.828Z,80.60
2018-07-05T02:49:19.996Z,80.80
2018-07-05T02:52:00.042Z,81.20
2018-07-05T02:54:40.117Z,81.10
2018-07-05T02:57:20.513Z,81.00
2018-07-05T03:02:34.341Z,81.10
2018-07-05T03:05:14.515Z,80.60
2018-07-05T03:07:54.475Z,80.70
2018-07-05T03:10:34.639Z,80.70
2018-07-05T03:13:14.788Z,80.90
2018-07-05T03:15:54.710Z,80.80
2018-07-05T03:18:34.803Z,80.80
2018-07-05T03:21:14.959Z,80.80
2018-07-05T03:23:54.994Z,81.00
2018-07-05T03:26:34.987Z,80.90
2018-07-05T03:29:14.923Z,80.80
2018-07-05T03:31:55.210Z,80.90
2018-07-05T03:37:09.701Z,81.10
2018-07-05T03:39:50.066Z,81.10
2018-07-05T03:42:29.802Z,81.30
2018-07-05T03:45:10.626Z,81.50
2018-07-05T03:50:24.867Z,81.30
2018-07-05T03:53:04.539Z,81.40
2018-07-05T03:55:44.495Z,81.30
2018-07-05T03:58:24.440Z,81.40
2018-07-05T04:01:04.175Z,82.10
2018-07-05T04:03:44.049Z,81.30
2018-07-05T04:06:24.605Z,80.80
2018-07-05T04:09:05.089Z,80.60
2018-07-05T04:11:45.966Z,81.40
2018-07-05T04:14:26.232Z,81.40
2018-07-05T04:17:07.921Z,79.90
2018-07-05T04:19:49.996Z,77.00
2018-07-05T04:22:29.764Z,74.00
2018-07-05T04:25:13.744Z,70.80
2018-07-05T04:27:55.760Z,67.40
2018-07-05T04:30:36.222Z,64.10
2018-07-05T04:33:16.161Z,59.90
2018-07-05T04:35:56.211Z,58.80
2018-07-05T04:38:36.669Z,57.50
2018-07-05T04:41:16.745Z,55.90
2018-07-05T04:43:56.783Z,55.10
2018-07-05T04:46:36.645Z,53.70
2018-07-05T04:49:16.696Z,52.50
2018-07-05T04:51:56.958Z,51.00
2018-07-05T04:54:37.254Z,50.30
2018-07-05T04:57:17.495Z,49.40
2018-07-05T04:59:57.536Z,47.80
2018-07-05T05:02:37.309Z,46.30
2018-07-05T05:05:17.256Z,45.30
2018-07-05T05:07:57.768Z,44.80
2018-07-05T05:13:12.234Z,42.40
2018-07-05T05:15:52.493Z,41.50
2018-07-05T05:18:32.446Z,40.60
2018-07-05T05:21:11.989Z,40.40
2018-07-05T05:23:52.353Z,40.60
2018-07-05T05:26:31.850Z,41.10
2018-07-05T05:29:12.071Z,40.60
2018-07-05T05:31:52.948Z,39.90
2018-07-05T05:34:32.831Z,40.80
2018-07-05T05:37:12.857Z,41.90
2018-07-05T05:39:53.568Z,41.70
2018-07-05T05:42:33.377Z,41.70
2018-07-05T05:45:13.785Z,42.30
2018-07-05T05:47:54.607Z,43.70
2018-07-05T05:50:34.996Z,43.70
2018-07-05T05:53:15.260Z,42.30
2018-07-05T05:55:55.103Z,41.20
2018-07-05T05:58:35.119Z,39.50
2018-07-05T06:01:15.458Z,36.90
2018-07-05T06:06:30.276Z,32.60
2018-07-05T06:09:11.012Z,31.20
2018-07-05T06:11:51.466Z,30.50
2018-07-05T06:14:31.749Z,30.10
2018-07-05T06:17:15.591Z,29.50
2018-07-05T06:19:56.282Z,28.50
2018-07-05T06:22:36.581Z,27.80
2018-07-05T06:25:16.894Z,27.00
2018-07-05T06:27:57.060Z,26.30
2018-07-05T06:30:37.207Z,25.50
2018-07-05T06:33:17.359Z,25.50
2018-07-05T06:35:57.306Z,25.10
2018-07-05T06:38:37.487Z,24.70
2018-07-05T06:41:17.644Z,24.70
2018-07-05T06:43:57.600Z,24.70
2018-07-05T06:46:38.073Z,24.70
2018-07-05T06:49:18.271Z,25.70
2018-07-05T06:51:58.192Z,26.50
2018-07-05T06:54:37.778Z,28.00
2018-07-05T06:57:18.516Z,29.40
2018-07-05T06:59:58.489Z,30.70
2018-07-05T07:02:38.726Z,31.90
2018-07-05T07:05:18.998Z,33.40
2018-07-05T07:07:59.010Z,33.70
2018-07-05T07:10:38.666Z,32.00
2018-07-05T07:13:18.559Z,29.70
2018-07-05T07:15:59.068Z,28.30
2018-07-05T07:21:12.899Z,26.10
2018-07-05T07:23:52.763Z,25.40
2018-07-05T07:26:32.905Z,25.20
2018-07-05T07:29:13.194Z,24.40
2018-07-05T07:31:53.551Z,24.20
2018-07-05T07:34:33.537Z,24.00
2018-07-05T07:39:47.785Z,24.00
2018-07-05T07:42:15.154Z,23.50
2018-07-05T07:44:42.499Z,23.20
2018-07-05T07:47:09.816Z,23.00
2018-07-05T07:49:37.184Z,23.10
2018-07-05T07:52:04.564Z,23.10
2018-07-05T07:54:31.946Z,22.90
2018-07-05T07:56:59.079Z,23.40
2018-07-05T07:59:26.502Z,22.80
2018-07-05T08:01:54.598Z,22.90
2018-07-05T08:04:22.186Z,22.90
2018-07-05T08:06:49.542Z,23.00
2018-07-05T08:09:17.021Z,22.80
2018-07-05T08:11:44.514Z,22.70
2018-07-05T08:14:12.613Z,23.00
2018-07-05T08:16:40.082Z,23.30
2018-07-05T08:19:08.284Z,23.40
2018-07-05T08:21:35.853Z,23.50
2018-07-05T08:24:03.532Z,23.90
2018-07-05T08:26:31.231Z,24.00
2018-07-05T08:28:58.917Z,24.40
2018-07-05T08:31:26.529Z,25.00
2018-07-05T08:33:53.977Z,25.60
2018-07-05T08:36:22.051Z,26.70
2018-07-05T08:38:49.747Z,27.50
2018-07-05T08:41:17.845Z,28.00
2018-07-05T08:43:45.539Z,28.20
2018-07-05T08:46:13.312Z,28.50
2018-07-05T08:48:40.995Z,28.90
2018-07-05T08:51:08.631Z,29.90
2018-07-05T08:53:36.343Z,30.00
2018-07-05T08:56:04.496Z,30.30
2018-07-05T08:58:32.492Z,30.60
2018-07-05T09:03:27.657Z,30.20
2018-07-05T09:05:54.976Z,30.80
2018-07-05T09:08:22.364Z,31.80
2018-07-05T09:10:50.496Z,31.60
2018-07-05T09:13:18.222Z,32.20
2018-07-05T09:15:46.164Z,32.80
2018-07-05T09:23:09.965Z,35.30
2018-07-05T09:25:37.683Z,35.60
2018-07-05T09:28:05.559Z,35.80
2018-07-05T09:30:33.751Z,35.30
2018-07-05T09:33:02.109Z,36.00
2018-07-05T09:35:29.547Z,36.50
2018-07-05T09:37:57.322Z,36.00
2018-07-05T09:40:24.789Z,35.50
2018-07-05T09:42:52.282Z,34.90
2018-07-05T09:45:19.755Z,35.00
2018-07-05T09:47:47.310Z,35.90
2018-07-05T09:50:15.038Z,36.20
2018-07-05T09:52:42.618Z,36.10
2018-07-05T09:57:39.200Z,35.10
2018-07-05T10:00:07.376Z,35.50
2018-07-05T10:02:38.951Z,35.90
2018-07-05T10:05:06.650Z,36.80
2018-07-05T10:07:34.130Z,36.20
2018-07-05T10:10:02.517Z,35.10
2018-07-05T10:12:29.792Z,34.20
2018-07-05T10:14:57.253Z,34.80
2018-07-05T10:17:25.075Z,35.60
2018-07-05T10:19:52.647Z,35.60
2018-07-05T10:22:20.135Z,34.80
2018-07-05T10:24:47.707Z,35.70
2018-07-05T10:27:15.187Z,35.50
2018-07-05T10:29:55.229Z,35.70
2018-07-05T10:32:35.319Z,35.40
2018-07-05T10:35:03.596Z,35.40
2018-07-05T10:37:30.988Z,35.00
2018-07-05T10:40:11.238Z,35.40
2018-07-05T10:42:54.906Z,35.10
2018-07-05T10:45:35.074Z,34.80
2018-07-05T10:51:50.186Z,33.10
2018-07-05T10:54:33.934Z,33.00
2018-07-05T10:57:13.900Z,32.80
2018-07-05T10:59:54.152Z,32.60
2018-07-05T11:02:34.100Z,31.30
2018-07-05T11:05:14.166Z,29.80
2018-07-05T11:07:54.238Z,30.30
2018-07-05T11:10:34.397Z,32.30
2018-07-05T11:13:18.034Z,32.90
2018-07-05T11:15:58.188Z,33.40
2018-07-05T11:18:38.300Z,33.80
2018-07-05T11:21:18.598Z,33.60
2018-07-05T11:23:59.259Z,33.10
2018-07-05T11:26:39.143Z,32.10
2018-07-05T11:29:19.195Z,31.80
2018-07-05T11:31:59.439Z,31.00
2018-07-05T11:34:39.407Z,31.40
2018-07-05T11:37:19.474Z,32.30
2018-07-05T11:40:00.313Z,32.40
2018-07-05T11:42:40.193Z,32.30
2018-07-05T11:45:20.566Z,31.00
2018-07-05T11:48:01.084Z,31.90
2018-07-05T11:50:40.599Z,33.10
2018-07-05T11:53:21.262Z,33.60
2018-07-05T11:56:01.364Z,33.80
2018-07-05T12:01:15.360Z,33.70
2018-07-05T12:03:55.258Z,34.00
2018-07-05T12:06:35.303Z,33.70
2018-07-05T12:09:15.062Z,32.40
2018-07-05T12:11:55.229Z,33.10
2018-07-05T12:14:35.637Z,32.90
2018-07-05T12:19:49.884Z,33.10
2018-07-05T12:22:29.938Z,31.90
2018-07-05T12:25:09.802Z,32.60
2018-07-05T12:27:49.963Z,32.70
2018-07-05T12:30:30.126Z,33.30
2018-07-05T12:33:09.886Z,32.20
2018-07-05T12:35:49.844Z,32.20
2018-07-05T12:38:29.894Z,32.40
2018-07-05T12:41:09.535Z,30.80
2018-07-05T12:43:49.768Z,30.90
2018-07-05T12:46:29.526Z,31.90
2018-07-05T12:49:09.709Z,32.70
2018-07-05T12:51:49.903Z,32.20
2018-07-05T12:54:30.877Z,32.10
2018-07-05T12:57:10.915Z,31.80
2018-07-05T12:59:51.278Z,33.00
2018-07-05T13:02:31.037Z,31.60
2018-07-05T13:05:11.093Z,31.10
2018-07-05T13:07:51.243Z,31.10
2018-07-05T13:10:31.320Z,30.90
2018-07-05T13:13:11.577Z,31.20
2018-07-05T13:15:51.949Z,31.60
2018-07-05T13:18:32.189Z,31.90
2018-07-05T13:21:12.278Z,32.30
2018-07-05T13:23:54.043Z,31.80
2018-07-05T13:26:33.982Z,31.50
2018-07-05T13:29:13.981Z,31.60
2018-07-05T13:31:53.679Z,32.10
2018-07-05T13:34:33.779Z,32.80
2018-07-05T13:37:13.632Z,32.70
2018-07-05T13:39:53.941Z,32.50
2018-07-05T13:42:33.970Z,31.50
2018-07-05T13:47:48.054Z,30.30
2018-07-05T13:50:27.873Z,30.30
2018-07-05T13:53:08.061Z,30.30
2018-07-05T13:55:48.224Z,31.50
2018-07-05T13:58:28.381Z,31.90
2018-07-05T14:01:08.738Z,32.20
2018-07-05T14:03:48.706Z,32.70
2018-07-05T14:06:28.889Z,32.70
2018-07-05T14:09:08.930Z,33.50
2018-07-05T14:11:48.793Z,33.70
2018-07-05T14:14:28.924Z,34.10
2018-07-05T14:17:09.205Z,35.10
2018-07-05T14:19:50.481Z,35.90
2018-07-05T14:22:30.553Z,36.20
2018-07-05T14:25:10.663Z,37.00
2018-07-05T14:27:51.082Z,37.50
2018-07-05T14:35:40.217Z,38.80
2018-07-05T14:38:20.263Z,39.00
2018-07-05T14:41:00.217Z,39.40
2018-07-05T14:43:40.636Z,39.80
2018-07-05T14:51:30.225Z,40.60
2018-07-05T14:54:09.974Z,41.30
2018-07-05T14:56:50.261Z,41.80
2018-07-05T14:59:31.479Z,42.00
2018-07-05T15:04:46.353Z,42.40
2018-07-05T15:07:26.408Z,42.60
2018-07-05T15:10:06.562Z,42.00
2018-07-05T15:15:20.855Z,42.10
2018-07-05T15:18:00.709Z,42.00
2018-07-05T15:20:40.567Z,41.50
2018-07-05T15:23:20.815Z,41.70
2018-07-05T15:26:00.305Z,41.40
2018-07-05T15:28:40.411Z,42.20
2018-07-05T15:31:20.683Z,43.10
2018-07-05T15:34:00.399Z,43.80
2018-07-05T15:36:40.399Z,43.90
2018-07-05T15:39:20.455Z,44.60
2018-07-05T15:42:01.011Z,44.90
2018-07-05T15:44:40.873Z,43.70
2018-07-05T15:47:22.987Z,43.50
2018-07-05T15:52:48.322Z,44.80
2018-07-05T15:55:28.578Z,45.40
2018-07-05T15:58:08.656Z,45.90
2018-07-05T16:00:48.899Z,46.20
2018-07-05T16:03:28.959Z,47.30
2018-07-05T16:06:09.728Z,46.90
2018-07-05T16:08:49.805Z,47.10
2018-07-05T16:11:29.658Z,47.60
2018-07-05T16:14:09.815Z,47.90
2018-07-05T16:16:50.077Z,48.20
2018-07-05T16:19:29.893Z,48.50
2018-07-05T16:22:09.992Z,49.20
2018-07-05T16:24:50.170Z,48.40
2018-07-05T16:27:30.101Z,48.70
2018-07-05T16:30:10.265Z,48.60
2018-07-05T16:32:50.423Z,48.70
2018-07-05T16:35:30.581Z,48.60
2018-07-05T16:38:10.752Z,48.60
2018-07-05T16:40:51.107Z,48.70
2018-07-05T16:43:31.783Z,48.90
2018-07-05T16:46:11.954Z,48.50
2018-07-05T16:48:51.792Z,47.70
2018-07-05T16:51:31.633Z,47.40
2018-07-05T16:54:11.605Z,47.00
2018-07-05T16:56:51.776Z,47.40
2018-07-05T16:59:31.631Z,47.80
2018-07-05T17:02:11.895Z,48.10
2018-07-05T17:04:51.633Z,48.20
2018-07-05T17:07:31.857Z,48.30
2018-07-05T17:10:12.085Z,48.40
2018-07-05T17:12:52.041Z,48.40
2018-07-05T17:15:32.492Z,48.60
2018-07-05T17:18:13.299Z,49.10
2018-07-05T17:23:27.563Z,50.40
2018-07-05T17:26:08.301Z,50.60
2018-07-05T17:28:48.700Z,51.10
2018-07-05T17:31:28.696Z,51.60
2018-07-05T17:34:08.735Z,52.00
2018-07-05T17:36:48.892Z,51.70
2018-07-05T17:39:29.358Z,52.60
2018-07-05T17:42:09.856Z,52.10
2018-07-05T17:44:50.089Z,52.40
2018-07-05T17:47:33.204Z,52.40
2018-07-05T17:50:15.394Z,52.70
2018-07-05T17:52:55.705Z,52.70
2018-07-05T17:55:35.464Z,52.80
2018-07-05T18:00:49.721Z,53.20
2018-07-05T18:03:29.879Z,53.20
2018-07-05T18:06:10.134Z,53.60
2018-07-05T18:08:50.308Z,54.40
2018-07-05T18:14:05.049Z,55.60
2018-07-05T18:16:44.978Z,55.80
2018-07-05T18:19:24.902Z,56.00
2018-07-05T18:22:05.178Z,55.90
2018-07-05T18:24:46.086Z,56.00
2018-07-05T18:30:00.960Z,56.00
2018-07-05T18:32:41.228Z,56.10
2018-07-05T18:35:20.890Z,56.10
2018-07-05T18:38:00.957Z,55.90
2018-07-05T18:40:41.334Z,55.80
2018-07-05T18:43:21.018Z,56.00
2018-07-05T18:46:01.692Z,55.90
2018-07-05T18:48:42.484Z,55.70
2018-07-05T18:51:22.663Z,55.30
2018-07-05T18:54:11.062Z,55.30
2018-07-05T18:56:51.235Z,55.40
2018-07-05T18:59:32.866Z,55.30
2018-07-05T19:02:12.993Z,56.00
2018-07-05T19:10:41.147Z,56.40
2018-07-05T19:13:21.436Z,57.10
2018-07-05T19:16:01.779Z,57.50
2018-07-05T19:21:36.168Z,58.40
2018-07-05T19:24:16.475Z,59.10
2018-07-05T19:26:56.384Z,60.10
2018-07-05T19:29:36.831Z,61.20
2018-07-05T19:32:16.896Z,62.40
2018-07-05T19:34:56.333Z,63.60
2018-07-05T19:37:35.876Z,64.50
2018-07-05T19:40:15.424Z,64.70
2018-07-05T19:42:54.870Z,65.20
2018-07-05T19:48:14.286Z,67.10
2018-07-05T19:50:54.076Z,68.00
2018-07-05T19:53:33.478Z,68.90
2018-07-05T19:59:09.439Z,70.60
2018-07-05T20:01:48.885Z,71.40
2018-07-05T20:12:47.038Z,74.60
2018-07-05T20:15:26.461Z,75.30
2018-07-05T20:18:06.115Z,76.10
2018-07-05T20:23:41.368Z,77.20
2018-07-05T20:26:20.799Z,77.90
2018-07-05T20:29:00.155Z,78.50
2018-07-05T20:31:39.606Z,79.10
2018-07-05T20:34:18.843Z,79.80
2018-07-05T20:36:58.393Z,80.50
2018-07-05T20:39:43.358Z,81.20
2018-07-05T20:44:56.101Z,82.10
2018-07-05T20:47:35.559Z,82.70
2018-07-05T20:52:48.505Z,83.30
2018-07-05T20:55:32.359Z,83.70
2018-07-05T21:00:50.956Z,84.00
2018-07-05T21:03:30.369Z,84.90
2018-07-05T21:06:09.934Z,85.20
2018-07-05T21:08:49.482Z,85.30
2018-07-05T21:11:36.586Z,85.50
2018-07-05T21:14:15.839Z,85.90
2018-07-05T21:16:55.169Z,86.30
2018-07-05T21:19:40.332Z,86.70
2018-07-05T21:22:19.455Z,87.10
2018-07-05T21:24:58.829Z,87.40
2018-07-05T21:30:11.798Z,88.00
2018-07-05T21:32:51.139Z,88.30
2018-07-05T21:35:30.591Z,88.60
2018-07-05T21:38:09.826Z,88.70
2018-07-05T21:40:52.542Z,89.30
2018-07-05T21:43:32.092Z,89.60
2018-07-05T21:46:11.639Z,89.80
2018-07-05T21:48:51.088Z,90.00
2018-07-05T21:51:30.733Z,90.20
2018-07-05T21:54:10.077Z,90.50
2018-07-05T21:56:49.626Z,90.80
2018-07-05T22:02:06.387Z,91.10
2018-07-05T22:04:45.837Z,91.20
2018-07-05T22:07:25.463Z,91.40
2018-07-05T22:10:05.023Z,91.60
2018-07-05T22:12:44.352Z,91.70
2018-07-05T22:15:23.900Z,91.90
2018-07-05T22:18:08.858Z,92.00
2018-07-05T22:20:53.762Z,92.10
2018-07-05T22:23:38.598Z,92.00
2018-07-05T22:26:23.570Z,92.00
2018-07-05T22:31:42.151Z,92.20
2018-07-05T22:34:21.505Z,92.30
2018-07-05T22:37:01.041Z,92.40
2018-07-05T22:39:40.589Z,92.60
2018-07-05T22:44:53.895Z,93.10
2018-07-05T22:47:33.299Z,93.20
2018-07-05T22:50:12.542Z,93.30
2018-07-05T22:52:51.988Z,93.30
2018-07-05T22:58:06.172Z,93.60
2018-07-05T23:00:45.619Z,93.70
2018-07-05T23:03:29.154Z,93.80
2018-07-05T23:06:08.713Z,93.80
2018-07-05T23:08:54.180Z,93.70
2018-07-05T23:11:33.527Z,93.80
2018-07-05T23:14:19.412Z,93.90
2018-07-05T23:16:58.876Z,93.80
2018-07-05T23:19:38.406Z,94.00
2018-07-05T23:22:17.954Z,94.10
2018-07-05T23:24:57.627Z,94.00
2018-07-05T23:27:36.904Z,94.00
2018-07-05T23:30:16.294Z,94.00
2018-07-05T23:32:55.636Z,94.30
2018-07-05T23:35:35.180Z,94.20
2018-07-05T23:38:14.728Z,94.70
2018-07-05T23:40:54.069Z,94.60
2018-07-05T23:43:33.617Z,94.60
2018-07-05T23:48:46.903Z,94.90
2018-07-05T23:51:27.863Z,94.90
2018-07-05T23:54:07.409Z,94.90
2018-07-05T23:56:47.265Z,94.90
2018-07-05T23:59:26.836Z,94.90
